createdAt,value
2018-07-31T00:01:29.944Z,1.70
2018-07-31T00:03:59.478Z,1.43
2018-07-31T00:06:29.018Z,1.33
2018-07-31T00:08:58.103Z,1.87
2018-07-31T00:11:27.569Z,1.47
2018-07-31T00:13:58.548Z,1.20
2018-07-31T00:16:28.116Z,1.10
2018-07-31T00:18:57.340Z,1.57
2018-07-31T00:21:26.739Z,1.30
2018-07-31T00:23:57.752Z,1.30
2018-07-31T00:26:27.254Z,1.47
2018-07-31T00:28:57.454Z,1.10
2018-07-31T00:31:26.978Z,1.53
2018-07-31T00:33:57.240Z,2.10
2018-07-31T00:36:26.745Z,1.67
2018-07-31T00:38:56.813Z,1.37
2018-07-31T00:41:26.389Z,1.40
2018-07-31T00:43:55.914Z,2.33
2018-07-31T00:46:25.996Z,1.60
2018-07-31T00:48:55.501Z,1.30
2018-07-31T00:51:24.996Z,1.13
2018-07-31T00:53:54.567Z,1.40
2018-07-31T00:56:24.093Z,1.30
2018-07-31T00:58:53.688Z,1.53
2018-07-31T01:01:23.183Z,1.60
2018-07-31T01:03:52.953Z,1.70
2018-07-31T01:06:32.844Z,1.40
2018-07-31T01:09:03.108Z,1.80
2018-07-31T01:11:32.626Z,1.17
2018-07-31T01:14:03.348Z,1.00
2018-07-31T01:16:32.905Z,1.23
2018-07-31T01:19:02.975Z,1.37
2018-07-31T01:21:32.556Z,1.30
2018-07-31T01:24:02.380Z,1.33
2018-07-31T01:26:31.980Z,1.60
2018-07-31T01:29:01.709Z,1.27
2018-07-31T01:31:31.285Z,1.57
2018-07-31T01:34:00.776Z,1.50
2018-07-31T01:36:30.323Z,1.70
2018-07-31T01:38:59.913Z,1.60
2018-07-31T01:41:29.416Z,1.37
2018-07-31T01:43:58.954Z,1.53
2018-07-31T01:46:28.461Z,1.60
2018-07-31T01:48:58.049Z,1.77
2018-07-31T01:51:27.573Z,1.80
2018-07-31T01:53:57.099Z,1.30
2018-07-31T01:56:26.685Z,1.60
2018-07-31T01:58:56.231Z,1.73
2018-07-31T02:01:25.770Z,1.77
2018-07-31T02:03:55.337Z,1.90
2018-07-31T02:06:28.609Z,2.73
2018-07-31T02:08:58.500Z,1.90
2018-07-31T02:11:27.993Z,1.60
2018-07-31T02:13:57.471Z,1.90
2018-07-31T02:16:27.013Z,1.80
2018-07-31T02:18:56.492Z,1.67
2018-07-31T02:21:25.969Z,1.90
2018-07-31T02:23:55.487Z,2.20
2018-07-31T02:26:25.024Z,1.97
2018-07-31T02:28:54.521Z,1.90
2018-07-31T02:31:24.041Z,1.77
2018-07-31T02:33:53.544Z,1.90
2018-07-31T02:36:23.076Z,2.03
2018-07-31T02:38:52.614Z,1.77
2018-07-31T02:41:22.124Z,1.60
2018-07-31T02:43:51.688Z,1.70
2018-07-31T02:46:21.230Z,1.80
2018-07-31T02:48:50.790Z,1.63
2018-07-31T02:51:20.309Z,1.83
2018-07-31T02:53:49.837Z,2.03
2018-07-31T02:56:19.320Z,1.57
2018-07-31T02:58:48.351Z,1.80
2018-07-31T03:01:18.626Z,1.60
2018-07-31T03:03:48.101Z,2.20
2018-07-31T03:06:18.298Z,1.90
2018-07-31T03:08:47.766Z,2.00
2018-07-31T03:11:17.965Z,2.00
2018-07-31T03:13:47.492Z,1.83
2018-07-31T03:16:17.613Z,1.70
2018-07-31T03:18:47.089Z,1.90
2018-07-31T03:21:17.335Z,1.67
2018-07-31T03:23:46.960Z,1.77
2018-07-31T03:26:17.179Z,1.73
2018-07-31T03:28:46.683Z,1.13
2018-07-31T03:31:16.889Z,1.23
2018-07-31T03:33:46.417Z,1.67
2018-07-31T03:36:16.561Z,1.53
2018-07-31T03:38:46.040Z,1.83
2018-07-31T03:41:16.308Z,1.63
2018-07-31T03:43:45.830Z,1.70
2018-07-31T03:46:16.143Z,2.00
2018-07-31T03:48:45.669Z,1.53
2018-07-31T03:51:15.241Z,2.07
2018-07-31T03:53:44.756Z,1.47
2018-07-31T03:56:14.322Z,1.50
2018-07-31T03:58:43.820Z,1.20
2018-07-31T04:01:13.804Z,1.50
2018-07-31T04:03:43.344Z,1.47
2018-07-31T04:06:12.957Z,1.53
2018-07-31T04:08:42.626Z,1.40
2018-07-31T04:11:12.109Z,1.33
2018-07-31T04:13:41.610Z,1.70
2018-07-31T04:16:11.224Z,1.40
2018-07-31T04:18:40.740Z,1.40
2018-07-31T04:21:10.301Z,1.60
2018-07-31T04:23:39.837Z,1.70
2018-07-31T04:26:09.352Z,1.50
2018-07-31T04:28:38.825Z,1.80
2018-07-31T04:31:07.898Z,2.17
2018-07-31T04:33:37.350Z,1.60
2018-07-31T04:36:06.940Z,1.70
2018-07-31T04:38:36.440Z,1.60
2018-07-31T04:41:06.015Z,1.37
2018-07-31T04:43:35.481Z,1.30
2018-07-31T04:46:05.019Z,1.87
2018-07-31T04:48:34.585Z,1.33
2018-07-31T04:51:04.122Z,1.70
2018-07-31T04:53:33.701Z,1.50
2018-07-31T04:56:03.207Z,1.40
2018-07-31T04:58:32.713Z,1.80
2018-07-31T05:01:02.256Z,1.70
2018-07-31T05:03:31.833Z,1.27
2018-07-31T05:06:01.336Z,1.77
2018-07-31T05:08:30.847Z,1.20
2018-07-31T05:11:00.338Z,1.20
2018-07-31T05:13:30.396Z,1.73
2018-07-31T05:15:59.846Z,0.80
2018-07-31T05:18:29.741Z,1.00
2018-07-31T05:20:59.324Z,1.27
2018-07-31T05:23:29.211Z,2.03
2018-07-31T05:25:58.737Z,2.63
2018-07-31T05:28:28.869Z,1.90
2018-07-31T05:30:58.382Z,1.53
2018-07-31T05:33:28.460Z,3.50
2018-07-31T05:35:58.285Z,2.37
2018-07-31T05:38:28.416Z,1.40
2018-07-31T05:40:57.961Z,1.20
2018-07-31T05:43:27.587Z,1.63
2018-07-31T05:45:58.164Z,1.67
2018-07-31T05:48:27.693Z,1.70
2018-07-31T05:50:57.300Z,1.77
2018-07-31T05:53:26.840Z,1.50
2018-07-31T05:55:56.383Z,2.77
2018-07-31T05:58:25.941Z,1.50
2018-07-31T06:00:55.457Z,1.40
2018-07-31T06:03:25.228Z,1.20
2018-07-31T06:05:55.062Z,1.33
2018-07-31T06:08:24.645Z,1.30
2018-07-31T06:10:54.136Z,1.50
2018-07-31T06:13:23.688Z,1.20
2018-07-31T06:15:53.208Z,1.20
2018-07-31T06:18:22.696Z,1.23
2018-07-31T06:20:52.292Z,1.10
2018-07-31T06:23:21.904Z,0.90
2018-07-31T06:25:51.389Z,1.37
2018-07-31T06:28:20.873Z,1.47
2018-07-31T06:30:50.415Z,1.10
2018-07-31T06:33:19.956Z,1.30
2018-07-31T06:35:49.532Z,1.10
2018-07-31T06:38:19.032Z,1.20
2018-07-31T06:40:48.571Z,1.00
2018-07-31T06:43:18.173Z,0.90
2018-07-31T06:45:47.655Z,1.10
2018-07-31T06:48:17.171Z,0.80
2018-07-31T06:50:46.674Z,0.60
2018-07-31T06:53:16.166Z,0.90
2018-07-31T06:55:45.847Z,1.03
2018-07-31T06:58:15.407Z,1.40
2018-07-31T07:00:44.920Z,0.80
2018-07-31T07:03:14.475Z,0.90
2018-07-31T07:05:44.007Z,0.87
2018-07-31T07:08:13.488Z,0.80
2018-07-31T07:10:42.969Z,2.63
2018-07-31T07:13:12.540Z,1.00
2018-07-31T07:15:42.080Z,0.70
2018-07-31T07:18:11.632Z,0.63
2018-07-31T07:20:41.205Z,0.90
2018-07-31T07:23:10.738Z,0.60
2018-07-31T07:25:40.498Z,0.53
2018-07-31T07:28:10.049Z,0.50
2018-07-31T07:30:40.249Z,0.70
2018-07-31T07:33:09.808Z,0.53
2018-07-31T07:35:40.374Z,0.40
2018-07-31T07:38:09.917Z,0.60
2018-07-31T07:40:40.268Z,0.70
2018-07-31T07:43:09.877Z,0.60
2018-07-31T07:45:39.359Z,0.70
2018-07-31T07:48:08.937Z,0.70
2018-07-31T07:50:38.547Z,0.67
2018-07-31T07:53:08.047Z,0.53
2018-07-31T07:55:37.605Z,0.60
2018-07-31T07:58:07.186Z,1.00
2018-07-31T08:00:36.701Z,0.50
2018-07-31T08:03:06.335Z,0.83
2018-07-31T08:05:35.860Z,0.60
2018-07-31T08:08:09.440Z,0.80
2018-07-31T08:10:40.992Z,0.60
2018-07-31T08:13:10.520Z,0.80
2018-07-31T08:15:40.022Z,1.03
2018-07-31T08:18:10.229Z,0.47
2018-07-31T08:20:39.753Z,0.60
2018-07-31T08:23:09.292Z,1.00
2018-07-31T08:25:38.765Z,1.03
2018-07-31T08:28:08.925Z,1.03
2018-07-31T08:30:38.391Z,0.80
2018-07-31T08:33:07.896Z,1.00
2018-07-31T08:35:37.433Z,0.57
2018-07-31T08:38:06.997Z,0.87
2018-07-31T08:40:36.552Z,0.70
2018-07-31T08:43:06.183Z,0.80
2018-07-31T08:45:35.733Z,0.80
2018-07-31T08:48:05.384Z,0.80
2018-07-31T08:50:34.956Z,0.80
2018-07-31T08:53:05.049Z,0.70
2018-07-31T08:55:34.579Z,0.70
2018-07-31T08:58:04.153Z,0.90
2018-07-31T09:00:33.707Z,0.60
2018-07-31T09:03:03.250Z,0.70
2018-07-31T09:05:32.773Z,1.00
2018-07-31T09:08:02.377Z,0.53
2018-07-31T09:10:32.010Z,1.27
2018-07-31T09:13:01.812Z,0.67
2018-07-31T09:15:31.324Z,0.90
2018-07-31T09:18:00.844Z,0.70
2018-07-31T09:20:30.395Z,0.70
2018-07-31T09:22:59.944Z,1.00
2018-07-31T09:25:33.628Z,0.57
2018-07-31T09:28:03.164Z,0.80
2018-07-31T09:30:32.750Z,0.93
2018-07-31T09:33:07.258Z,0.50
2018-07-31T09:35:37.508Z,0.67
2018-07-31T09:38:07.266Z,0.60
2018-07-31T09:40:36.836Z,0.70
2018-07-31T09:43:06.460Z,0.70
2018-07-31T09:45:36.032Z,0.70
2018-07-31T09:48:05.076Z,0.50
2018-07-31T09:50:34.565Z,0.60
2018-07-31T09:53:04.445Z,0.80
2018-07-31T09:55:34.089Z,0.53
2018-07-31T09:58:03.664Z,0.40
2018-07-31T10:00:38.490Z,0.60
2018-07-31T10:03:08.099Z,0.70
2018-07-31T10:05:37.636Z,0.60
2018-07-31T10:08:07.662Z,0.47
2018-07-31T10:10:37.227Z,0.70
2018-07-31T10:13:06.821Z,0.60
2018-07-31T10:15:36.382Z,0.60
2018-07-31T10:18:06.013Z,0.60
2018-07-31T10:20:35.560Z,0.70
2018-07-31T10:23:05.065Z,0.70
2018-07-31T10:25:34.116Z,1.03
2018-07-31T10:28:03.563Z,0.67
2018-07-31T10:30:33.351Z,0.90
2018-07-31T10:33:03.098Z,0.80
2018-07-31T10:35:32.774Z,0.80
2018-07-31T10:38:02.450Z,0.80
2018-07-31T10:40:32.040Z,1.00
2018-07-31T10:43:01.560Z,0.70
2018-07-31T10:45:31.194Z,0.70
2018-07-31T10:48:00.762Z,0.80
2018-07-31T10:50:30.288Z,0.80
2018-07-31T10:52:59.905Z,0.70
2018-07-31T10:55:29.469Z,0.70
2018-07-31T10:57:59.026Z,0.70
2018-07-31T11:00:28.531Z,0.73
2018-07-31T11:02:58.712Z,0.77
2018-07-31T11:05:28.305Z,0.97
2018-07-31T11:07:58.322Z,0.70
2018-07-31T11:10:27.907Z,0.70
2018-07-31T11:12:57.850Z,0.60
2018-07-31T11:15:26.951Z,0.77
2018-07-31T11:17:56.535Z,0.53
2018-07-31T11:20:26.601Z,0.83
2018-07-31T11:22:56.349Z,0.90
2018-07-31T11:25:26.428Z,0.50
2018-07-31T11:27:55.919Z,1.23
2018-07-31T11:30:25.396Z,0.90
2018-07-31T11:32:55.034Z,0.50
2018-07-31T11:35:24.770Z,0.67
2018-07-31T11:37:54.328Z,0.60
2018-07-31T11:40:23.825Z,0.90
2018-07-31T11:42:53.378Z,0.77
2018-07-31T11:45:22.950Z,0.63
2018-07-31T11:47:52.485Z,1.53
2018-07-31T11:50:21.988Z,0.70
2018-07-31T11:52:51.614Z,0.70
2018-07-31T11:55:21.217Z,0.80
2018-07-31T11:57:50.717Z,1.10
2018-07-31T12:00:20.237Z,1.00
2018-07-31T12:02:49.753Z,0.60
2018-07-31T12:05:19.344Z,0.90
2018-07-31T12:07:48.916Z,0.97
2018-07-31T12:10:18.100Z,0.87
2018-07-31T12:12:47.566Z,0.73
2018-07-31T12:15:17.253Z,0.70
2018-07-31T12:17:46.787Z,0.80
2018-07-31T12:20:16.294Z,1.00
2018-07-31T12:22:45.807Z,0.80
2018-07-31T12:25:15.019Z,0.90
2018-07-31T12:27:44.416Z,0.70
2018-07-31T12:30:13.973Z,1.00
2018-07-31T12:32:43.536Z,0.90
2018-07-31T12:35:13.153Z,0.90
2018-07-31T12:37:42.686Z,0.97
2018-07-31T12:40:12.956Z,1.17
2018-07-31T12:42:42.450Z,0.67
2018-07-31T12:45:12.625Z,0.77
2018-07-31T12:47:43.494Z,0.93
2018-07-31T12:50:13.530Z,0.70
2018-07-31T12:52:42.548Z,0.70
2018-07-31T12:55:13.001Z,0.87
2018-07-31T12:57:42.509Z,0.93
2018-07-31T13:00:12.936Z,1.50
2018-07-31T13:02:42.422Z,0.90
2018-07-31T13:05:13.278Z,0.97
2018-07-31T13:07:42.816Z,0.90
2018-07-31T13:10:12.448Z,0.80
2018-07-31T13:12:43.575Z,0.70
2018-07-31T13:15:13.220Z,0.70
2018-07-31T13:17:42.781Z,0.70
2018-07-31T13:20:12.365Z,0.80
2018-07-31T13:22:41.920Z,1.10
2018-07-31T13:25:11.557Z,0.80
2018-07-31T13:27:41.128Z,0.97
2018-07-31T13:30:10.605Z,0.70
2018-07-31T13:32:40.129Z,0.67
2018-07-31T13:35:09.667Z,0.70
2018-07-31T13:37:39.212Z,0.80
2018-07-31T13:40:08.858Z,0.80
2018-07-31T13:42:38.395Z,0.93
2018-07-31T13:45:08.100Z,0.90
2018-07-31T13:47:37.649Z,1.13
2018-07-31T13:50:07.616Z,0.73
2018-07-31T13:52:37.121Z,0.73
2018-07-31T13:55:06.811Z,0.70
2018-07-31T13:57:36.343Z,1.20
2018-07-31T14:00:06.237Z,1.00
2018-07-31T14:02:35.770Z,1.00
2018-07-31T14:05:05.933Z,0.90
2018-07-31T14:07:35.506Z,0.90
2018-07-31T14:10:05.100Z,0.87
2018-07-31T14:12:34.679Z,0.63
2018-07-31T14:15:04.782Z,0.93
2018-07-31T14:17:34.275Z,0.70
2018-07-31T14:20:03.820Z,0.80
2018-07-31T14:22:33.349Z,0.60
2018-07-31T14:25:02.936Z,0.73
2018-07-31T14:27:32.483Z,0.67
2018-07-31T14:30:02.156Z,1.00
2018-07-31T14:32:31.804Z,0.60
2018-07-31T14:35:01.398Z,0.53
2018-07-31T14:37:31.108Z,0.60
2018-07-31T14:40:00.752Z,0.60
2018-07-31T14:42:30.282Z,0.77
2018-07-31T14:45:00.004Z,0.63
2018-07-31T14:47:29.709Z,0.50
2018-07-31T14:49:58.879Z,0.70
2018-07-31T14:52:28.356Z,0.60
2018-07-31T14:54:57.923Z,1.00
2018-07-31T14:57:27.476Z,0.83
2018-07-31T14:59:57.100Z,1.07
2018-07-31T15:02:27.129Z,0.80
2018-07-31T15:04:56.812Z,1.47
2018-07-31T15:07:27.092Z,0.73
2018-07-31T15:09:56.992Z,0.60
2018-07-31T15:12:26.899Z,0.60
2018-07-31T15:14:56.582Z,0.97
2018-07-31T15:17:26.888Z,0.53
2018-07-31T15:19:56.575Z,0.60
2018-07-31T15:22:26.056Z,0.70
2018-07-31T15:24:56.953Z,0.70
2018-07-31T15:27:26.537Z,1.00
2018-07-31T15:29:56.270Z,0.70
2018-07-31T15:32:26.273Z,0.70
2018-07-31T15:34:55.757Z,0.83
2018-07-31T15:37:25.418Z,1.50
2018-07-31T15:39:54.926Z,0.50
2018-07-31T15:42:24.456Z,0.80
2018-07-31T15:44:54.084Z,0.80
2018-07-31T15:47:23.200Z,1.07
2018-07-31T15:49:52.612Z,0.97
2018-07-31T15:52:22.103Z,0.93
2018-07-31T15:54:52.460Z,0.83
2018-07-31T15:57:22.052Z,0.97
2018-07-31T15:59:51.164Z,0.80
2018-07-31T16:02:20.689Z,0.60
2018-07-31T16:04:50.822Z,0.70
2018-07-31T16:07:20.423Z,0.80
2018-07-31T16:09:49.967Z,0.67
2018-07-31T16:12:19.522Z,0.70
2018-07-31T16:14:49.078Z,0.60
2018-07-31T16:17:18.297Z,0.57
2018-07-31T16:19:47.768Z,0.70
2018-07-31T16:22:17.330Z,0.70
2018-07-31T16:24:46.952Z,0.90
2018-07-31T16:27:16.646Z,0.60
2018-07-31T16:29:46.122Z,0.60
2018-07-31T16:32:15.632Z,0.50
2018-07-31T16:34:45.105Z,0.90
2018-07-31T16:37:14.719Z,0.70
2018-07-31T16:39:44.327Z,0.93
2018-07-31T16:42:13.829Z,1.00
2018-07-31T16:44:43.392Z,0.77
2018-07-31T16:47:12.538Z,0.90
2018-07-31T16:49:41.604Z,0.80
2018-07-31T16:52:11.011Z,0.83
2018-07-31T16:54:40.516Z,0.90
2018-07-31T16:57:10.163Z,0.90
2018-07-31T16:59:39.716Z,0.90
2018-07-31T17:02:09.227Z,0.80
2018-07-31T17:04:39.640Z,0.70
2018-07-31T17:07:09.248Z,0.73
2018-07-31T17:09:39.227Z,0.87
2018-07-31T17:12:09.183Z,1.33
2018-07-31T17:14:39.223Z,0.57
2018-07-31T17:17:08.833Z,0.87
2018-07-31T17:19:38.733Z,0.80
2018-07-31T17:22:08.416Z,0.90
2018-07-31T17:24:38.368Z,1.00
2018-07-31T17:27:07.937Z,0.80
2018-07-31T17:29:37.836Z,0.63
2018-07-31T17:32:06.924Z,0.70
2018-07-31T17:34:36.482Z,0.80
2018-07-31T17:37:06.649Z,0.73
2018-07-31T17:39:36.201Z,0.73
2018-07-31T17:42:05.772Z,0.80
2018-07-31T17:44:35.349Z,0.97
2018-07-31T17:47:04.912Z,1.10
2018-07-31T17:49:34.485Z,0.93
2018-07-31T17:52:04.122Z,0.80
2018-07-31T17:54:33.666Z,0.93
2018-07-31T17:57:03.267Z,0.97
2018-07-31T17:59:32.827Z,0.67
2018-07-31T18:02:02.531Z,1.00
2018-07-31T18:04:32.209Z,1.00
2018-07-31T18:07:01.923Z,1.10
2018-07-31T18:09:31.488Z,1.03
2018-07-31T18:12:01.000Z,1.20
2018-07-31T18:14:30.878Z,1.33
2018-07-31T18:17:00.446Z,1.50
2018-07-31T18:19:30.282Z,0.90
2018-07-31T18:21:59.848Z,1.23
2018-07-31T18:24:29.792Z,1.23
2018-07-31T18:26:59.354Z,1.30
2018-07-31T18:29:28.904Z,1.30
2018-07-31T18:31:59.163Z,1.37
2018-07-31T18:34:28.740Z,1.10
2018-07-31T18:36:58.607Z,1.40
2018-07-31T18:39:28.237Z,1.07
2018-07-31T18:41:57.908Z,1.40
2018-07-31T18:44:27.441Z,1.10
2018-07-31T18:46:56.568Z,1.10
2018-07-31T18:49:26.041Z,1.37
2018-07-31T18:51:55.156Z,1.30
2018-07-31T18:54:24.584Z,1.23
2018-07-31T18:56:54.160Z,1.20
2018-07-31T18:59:23.664Z,1.30
2018-07-31T19:01:53.220Z,1.43
2018-07-31T19:04:22.796Z,1.00
2018-07-31T19:06:52.963Z,1.30
2018-07-31T19:09:22.507Z,1.50
2018-07-31T19:11:52.438Z,1.57
2018-07-31T19:14:21.535Z,1.40
2018-07-31T19:16:51.370Z,1.50
2018-07-31T19:19:20.964Z,1.63
2018-07-31T19:21:50.474Z,1.73
2018-07-31T19:24:20.799Z,1.40
2018-07-31T19:26:50.377Z,1.40
2018-07-31T19:29:19.956Z,1.70
2018-07-31T19:31:49.464Z,1.60
2018-07-31T19:34:19.001Z,1.67
2018-07-31T19:36:48.602Z,1.50
2018-07-31T19:39:17.983Z,1.63
2018-07-31T19:41:49.911Z,3.07
2018-07-31T19:44:19.520Z,1.70
2018-07-31T19:46:49.233Z,1.60
2018-07-31T19:49:18.789Z,1.60
2018-07-31T19:51:48.962Z,1.93
2018-07-31T19:54:18.553Z,1.67
2018-07-31T19:56:48.160Z,1.93
2018-07-31T19:59:19.044Z,2.47
2018-07-31T20:01:48.808Z,2.00
2018-07-31T20:04:18.557Z,1.93
2018-07-31T20:06:48.149Z,2.03
2018-07-31T20:09:25.030Z,1.97
2018-07-31T20:11:55.946Z,1.90
2018-07-31T20:14:25.763Z,1.83
2018-07-31T20:16:55.405Z,2.33
2018-07-31T20:19:24.954Z,2.30
2018-07-31T20:21:54.458Z,3.07
2018-07-31T20:24:23.628Z,2.13
2018-07-31T20:26:53.199Z,2.20
2018-07-31T20:29:22.800Z,2.40
2018-07-31T20:31:52.379Z,2.50
2018-07-31T20:34:21.913Z,2.97
2018-07-31T20:36:51.500Z,3.10
2018-07-31T20:39:21.036Z,2.63
2018-07-31T20:41:50.620Z,2.60
2018-07-31T20:44:20.190Z,2.70
2018-07-31T20:46:49.826Z,3.03
2018-07-31T20:49:22.572Z,3.90
2018-07-31T20:52:01.198Z,2.83
2018-07-31T20:54:33.409Z,3.73
2018-07-31T20:57:04.105Z,3.10
2018-07-31T20:59:34.514Z,3.47
2018-07-31T21:02:04.353Z,3.07
2018-07-31T21:04:33.924Z,2.67
2018-07-31T21:07:03.537Z,2.70
2018-07-31T21:09:33.113Z,3.07
2018-07-31T21:12:02.754Z,2.70
2018-07-31T21:14:32.337Z,3.53
2018-07-31T21:17:01.920Z,2.20
2018-07-31T21:19:31.449Z,2.10
2018-07-31T21:22:00.965Z,2.40
2018-07-31T21:24:30.035Z,2.40
2018-07-31T21:26:59.441Z,2.07
2018-07-31T21:29:29.062Z,2.33
2018-07-31T21:31:58.572Z,2.30
2018-07-31T21:34:28.065Z,2.70
2018-07-31T21:36:57.667Z,2.50
2018-07-31T21:39:27.260Z,2.97
2018-07-31T21:41:56.892Z,3.00
2018-07-31T21:44:26.513Z,3.17
2018-07-31T21:46:56.029Z,3.90
2018-07-31T21:49:25.594Z,3.03
2018-07-31T21:51:55.124Z,3.47
2018-07-31T21:54:24.640Z,4.00
2018-07-31T21:56:54.248Z,3.90
2018-07-31T21:59:23.718Z,3.40
2018-07-31T22:01:53.339Z,3.70
2018-07-31T22:04:22.975Z,3.63
2018-07-31T22:06:52.600Z,3.87
2018-07-31T22:09:27.276Z,3.43
2018-07-31T22:11:56.877Z,4.30
2018-07-31T22:14:26.450Z,4.00
2018-07-31T22:16:56.141Z,4.47
2018-07-31T22:19:25.672Z,4.30
2018-07-31T22:21:55.284Z,4.10
2018-07-31T22:24:24.819Z,4.07
2018-07-31T22:26:54.512Z,3.43
2018-07-31T22:29:24.083Z,3.80
2018-07-31T22:31:53.675Z,4.03
2018-07-31T22:34:23.270Z,4.07
2018-07-31T22:36:52.754Z,4.90
2018-07-31T22:39:22.279Z,4.60
2018-07-31T22:41:51.516Z,3.97
2018-07-31T22:44:21.034Z,3.60
2018-07-31T22:46:50.723Z,3.70
2018-07-31T22:49:20.250Z,3.20
2018-07-31T22:51:49.786Z,3.23
2018-07-31T22:54:19.355Z,3.40
2018-07-31T22:56:48.896Z,3.53
2018-07-31T22:59:19.529Z,3.50
2018-07-31T23:01:49.068Z,2.80
2018-07-31T23:04:19.520Z,3.03
2018-07-31T23:06:49.085Z,3.07
2018-07-31T23:09:19.741Z,3.27
2018-07-31T23:11:49.249Z,3.43
2018-07-31T23:14:20.094Z,2.67
2018-07-31T23:16:49.680Z,3.20
2018-07-31T23:19:20.548Z,3.00
2018-07-31T23:21:49.660Z,2.67
2018-07-31T23:24:19.579Z,2.83
2018-07-31T23:26:49.148Z,2.60
2018-07-31T23:29:19.068Z,2.43
2018-07-31T23:31:49.311Z,2.57
2018-07-31T23:34:18.927Z,2.60
2018-07-31T23:36:49.192Z,2.60
2018-07-31T23:39:18.981Z,2.40
2018-07-31T23:41:49.150Z,2.77
2018-07-31T23:44:18.713Z,2.93
2018-07-31T23:46:49.053Z,2.73
2018-07-31T23:49:18.622Z,2.77
2018-07-31T23:51:49.097Z,3.57
2018-07-31T23:54:18.806Z,3.30
2018-07-31T23:56:49.365Z,3.57
2018-07-31T23:59:19.521Z,3.43
